sensor_id;sensor_type;location;lat;lon;timestamp;temperature;humidity
20839;DHT22;10580;51.092;6.828;2023-07-22T00:00:58;13.10;1.00
20839;DHT22;10580;51.092;6.828;2023-07-22T00:03:24;13.10;1.00
20839;DHT22;10580;51.092;6.828;2023-07-22T00:06:08;13.10;39.70
20839;DHT22;10580;51.092;6.828;2023-07-22T00:08:35;13.00;5.30
20839;DHT22;10580;51.092;6.828;2023-07-22T00:11:02;13.00;21.10
20839;DHT22;10580;51.092;6.828;2023-07-22T00:13:28;13.00;21.00
20839;DHT22;10580;51.092;6.828;2023-07-22T00:15:54;13.00;47.80
20839;DHT22;10580;51.092;6.828;2023-07-22T00:18:19;12.90;99.90
20839;DHT22;10580;51.092;6.828;2023-07-22T00:20:45;12.90;99.90
20839;DHT22;10580;51.092;6.828;2023-07-22T00:23:11;12.90;99.90
20839;DHT22;10580;51.092;6.828;2023-07-22T00:25:36;12.90;99.90
20839;DHT22;10580;51.092;6.828;2023-07-22T00:28:02;12.90;99.90
20839;DHT22;10580;51.092;6.828;2023-07-22T00:30:29;12.90;1.00
20839;DHT22;10580;51.092;6.828;2023-07-22T00:32:55;12.90;1.00
20839;DHT22;10580;51.092;6.828;2023-07-22T00:35:20;12.90;1.00
20839;DHT22;10580;51.092;6.828;2023-07-22T00:37:46;12.90;1.00
20839;DHT22;10580;51.092;6.828;2023-07-22T00:40:12;13.00;1.00
20839;DHT22;10580;51.092;6.828;2023-07-22T00:42:38;13.00;1.00
20839;DHT22;10580;51.092;6.828;2023-07-22T00:45:04;12.90;1.00
20839;DHT22;10580;51.092;6.828;2023-07-22T00:47:32;13.00;1.00
20839;DHT22;10580;51.092;6.828;2023-07-22T00:50:00;13.00;1.00
20839;DHT22;10580;51.092;6.828;2023-07-22T00:52:26;13.00;1.00
20839;DHT22;10580;51.092;6.828;2023-07-22T00:54:52;13.00;1.00
20839;DHT22;10580;51.092;6.828;2023-07-22T00:57:18;13.10;1.00
20839;DHT22;10580;51.092;6.828;2023-07-22T00:59:45;13.10;1.00
20839;DHT22;10580;51.092;6.828;2023-07-22T01:02:10;13.10;1.00
20839;DHT22;10580;51.092;6.828;2023-07-22T01:04:37;13.20;1.00
20839;DHT22;10580;51.092;6.828;2023-07-22T01:07:04;13.20;1.00
20839;DHT22;10580;51.092;6.828;2023-07-22T01:12:25;13.30;1.00
20839;DHT22;10580;51.092;6.828;2023-07-22T01:14:52;13.30;51.60
20839;DHT22;10580;51.092;6.828;2023-07-22T01:17:18;13.30;1.00
20839;DHT22;10580;51.092;6.828;2023-07-22T01:19:44;13.30;1.00
20839;DHT22;10580;51.092;6.828;2023-07-22T01:22:13;13.30;1.00
20839;DHT22;10580;51.092;6.828;2023-07-22T01:24:39;13.20;1.00
20839;DHT22;10580;51.092;6.828;2023-07-22T01:27:09;13.30;1.00
20839;DHT22;10580;51.092;6.828;2023-07-22T01:29:36;13.20;1.00
20839;DHT22;10580;51.092;6.828;2023-07-22T01:32:02;13.20;1.00
20839;DHT22;10580;51.092;6.828;2023-07-22T01:34:27;13.20;1.00
20839;DHT22;10580;51.092;6.828;2023-07-22T01:36:53;13.20;99.90
20839;DHT22;10580;51.092;6.828;2023-07-22T01:39:19;13.30;99.90
20839;DHT22;10580;51.092;6.828;2023-07-22T01:41:45;13.30;99.90
20839;DHT22;10580;51.092;6.828;2023-07-22T01:44:11;13.40;99.90
20839;DHT22;10580;51.092;6.828;2023-07-22T01:46:37;13.40;92.50
20839;DHT22;10580;51.092;6.828;2023-07-22T01:49:07;13.40;1.00
20839;DHT22;10580;51.092;6.828;2023-07-22T01:51:36;13.50;39.50
20839;DHT22;10580;51.092;6.828;2023-07-22T01:54:06;13.50;1.00
20839;DHT22;10580;51.092;6.828;2023-07-22T01:56:31;13.50;1.00
20839;DHT22;10580;51.092;6.828;2023-07-22T01:58:57;13.50;81.20
20839;DHT22;10580;51.092;6.828;2023-07-22T02:01:23;13.50;1.00
20839;DHT22;10580;51.092;6.828;2023-07-22T02:03:49;13.50;1.00
20839;DHT22;10580;51.092;6.828;2023-07-22T02:06:15;13.40;1.00
20839;DHT22;10580;51.092;6.828;2023-07-22T02:08:41;13.40;99.90
20839;DHT22;10580;51.092;6.828;2023-07-22T02:11:07;13.30;35.10
20839;DHT22;10580;51.092;6.828;2023-07-22T02:13:35;13.30;53.00
20839;DHT22;10580;51.092;6.828;2023-07-22T02:16:01;13.30;99.90
20839;DHT22;10580;51.092;6.828;2023-07-22T02:18:27;13.30;99.90
20839;DHT22;10580;51.092;6.828;2023-07-22T02:20:54;13.20;99.90
20839;DHT22;10580;51.092;6.828;2023-07-22T02:23:19;13.20;99.90
20839;DHT22;10580;51.092;6.828;2023-07-22T02:25:52;13.20;99.90
20839;DHT22;10580;51.092;6.828;2023-07-22T02:28:19;13.20;1.00
20839;DHT22;10580;51.092;6.828;2023-07-22T02:30:52;13.10;1.00
20839;DHT22;10580;51.092;6.828;2023-07-22T02:33:18;13.10;1.00
20839;DHT22;10580;51.092;6.828;2023-07-22T02:35:43;13.20;1.00
20839;DHT22;10580;51.092;6.828;2023-07-22T02:38:09;13.20;1.00
20839;DHT22;10580;51.092;6.828;2023-07-22T02:40:36;13.20;1.00
20839;DHT22;10580;51.092;6.828;2023-07-22T02:43:01;13.20;1.00
20839;DHT22;10580;51.092;6.828;2023-07-22T02:45:27;13.30;1.00
20839;DHT22;10580;51.092;6.828;2023-07-22T02:47:52;13.30;1.00
20839;DHT22;10580;51.092;6.828;2023-07-22T02:50:21;13.40;99.90
20839;DHT22;10580;51.092;6.828;2023-07-22T02:52:47;13.40;99.90
20839;DHT22;10580;51.092;6.828;2023-07-22T02:55:16;13.50;99.90
20839;DHT22;10580;51.092;6.828;2023-07-22T02:57:46;13.50;99.90
20839;DHT22;10580;51.092;6.828;2023-07-22T03:00:14;13.50;99.90
20839;DHT22;10580;51.092;6.828;2023-07-22T03:02:43;13.50;99.90
20839;DHT22;10580;51.092;6.828;2023-07-22T03:05:09;13.60;99.90
20839;DHT22;10580;51.092;6.828;2023-07-22T03:07:38;13.60;99.90
20839;DHT22;10580;51.092;6.828;2023-07-22T03:10:05;13.60;99.90
20839;DHT22;10580;51.092;6.828;2023-07-22T03:12:32;13.60;99.90
20839;DHT22;10580;51.092;6.828;2023-07-22T03:15:06;13.60;99.90
20839;DHT22;10580;51.092;6.828;2023-07-22T03:17:34;13.60;99.90
20839;DHT22;10580;51.092;6.828;2023-07-22T03:20:01;13.50;99.90
20839;DHT22;10580;51.092;6.828;2023-07-22T03:22:26;13.50;99.90
20839;DHT22;10580;51.092;6.828;2023-07-22T03:24:52;13.50;1.00
20839;DHT22;10580;51.092;6.828;2023-07-22T03:27:18;13.40;1.00
20839;DHT22;10580;51.092;6.828;2023-07-22T03:29:43;13.40;1.00
20839;DHT22;10580;51.092;6.828;2023-07-22T03:32:09;13.30;1.00
20839;DHT22;10580;51.092;6.828;2023-07-22T03:34:35;13.30;1.00
20839;DHT22;10580;51.092;6.828;2023-07-22T03:37:01;13.30;1.00
20839;DHT22;10580;51.092;6.828;2023-07-22T03:39:26;13.20;1.00
20839;DHT22;10580;51.092;6.828;2023-07-22T03:41:52;13.20;1.00
20839;DHT22;10580;51.092;6.828;2023-07-22T03:44:17;13.10;1.00
20839;DHT22;10580;51.092;6.828;2023-07-22T03:46:43;13.10;14.50
20839;DHT22;10580;51.092;6.828;2023-07-22T03:49:08;13.10;99.90
20839;DHT22;10580;51.092;6.828;2023-07-22T03:51:34;13.10;99.90
20839;DHT22;10580;51.092;6.828;2023-07-22T03:54:00;13.10;99.90
20839;DHT22;10580;51.092;6.828;2023-07-22T03:56:28;13.10;99.90
20839;DHT22;10580;51.092;6.828;2023-07-22T03:58:54;13.10;99.90
20839;DHT22;10580;51.092;6.828;2023-07-22T04:01:19;13.10;1.00
20839;DHT22;10580;51.092;6.828;2023-07-22T04:03:45;13.10;1.00
20839;DHT22;10580;51.092;6.828;2023-07-22T04:06:11;13.10;1.00
20839;DHT22;10580;51.092;6.828;2023-07-22T04:08:36;13.10;1.00
20839;DHT22;10580;51.092;6.828;2023-07-22T04:11:02;13.20;1.00
20839;DHT22;10580;51.092;6.828;2023-07-22T04:13:28;13.20;1.00
20839;DHT22;10580;51.092;6.828;2023-07-22T04:15:53;13.20;1.00
20839;DHT22;10580;51.092;6.828;2023-07-22T04:18:20;13.30;1.00
20839;DHT22;10580;51.092;6.828;2023-07-22T04:20:48;13.30;1.00
20839;DHT22;10580;51.092;6.828;2023-07-22T04:23:14;13.40;1.00
20839;DHT22;10580;51.092;6.828;2023-07-22T04:25:43;13.50;1.00
20839;DHT22;10580;51.092;6.828;2023-07-22T04:28:09;13.50;1.00
20839;DHT22;10580;51.092;6.828;2023-07-22T04:30:36;13.60;99.90
20839;DHT22;10580;51.092;6.828;2023-07-22T04:33:02;13.60;99.90
20839;DHT22;10580;51.092;6.828;2023-07-22T04:35:32;13.60;99.90
20839;DHT22;10580;51.092;6.828;2023-07-22T04:37:58;13.70;1.00
20839;DHT22;10580;51.092;6.828;2023-07-22T04:40:23;13.70;1.00
20839;DHT22;10580;51.092;6.828;2023-07-22T04:42:50;13.80;1.00
20839;DHT22;10580;51.092;6.828;2023-07-22T04:45:16;13.80;1.00
20839;DHT22;10580;51.092;6.828;2023-07-22T04:47:43;13.90;1.00
20839;DHT22;10580;51.092;6.828;2023-07-22T04:50:12;13.90;47.30
20839;DHT22;10580;51.092;6.828;2023-07-22T04:52:38;14.00;1.00
20839;DHT22;10580;51.092;6.828;2023-07-22T04:55:04;14.00;78.80
20839;DHT22;10580;51.092;6.828;2023-07-22T04:57:35;14.10;41.90
20839;DHT22;10580;51.092;6.828;2023-07-22T05:00:02;14.10;1.00
20839;DHT22;10580;51.092;6.828;2023-07-22T05:02:29;14.20;1.00
20839;DHT22;10580;51.092;6.828;2023-07-22T05:04:56;14.30;55.90
20839;DHT22;10580;51.092;6.828;2023-07-22T05:07:21;14.30;1.00
20839;DHT22;10580;51.092;6.828;2023-07-22T05:09:48;14.40;1.00
20839;DHT22;10580;51.092;6.828;2023-07-22T05:12:13;14.50;1.00
20839;DHT22;10580;51.092;6.828;2023-07-22T05:14:39;14.60;1.00
20839;DHT22;10580;51.092;6.828;2023-07-22T05:17:05;14.60;99.90
20839;DHT22;10580;51.092;6.828;2023-07-22T05:19:31;14.80;1.00
20839;DHT22;10580;51.092;6.828;2023-07-22T05:21:56;14.90;99.90
20839;DHT22;10580;51.092;6.828;2023-07-22T05:24:22;15.00;99.90
20839;DHT22;10580;51.092;6.828;2023-07-22T05:26:47;15.30;99.90
20839;DHT22;10580;51.092;6.828;2023-07-22T05:29:13;15.50;99.90
20839;DHT22;10580;51.092;6.828;2023-07-22T05:31:39;15.60;99.90
20839;DHT22;10580;51.092;6.828;2023-07-22T05:34:04;15.70;1.00
20839;DHT22;10580;51.092;6.828;2023-07-22T05:36:30;15.90;1.00
20839;DHT22;10580;51.092;6.828;2023-07-22T05:38:57;16.20;1.00
20839;DHT22;10580;51.092;6.828;2023-07-22T05:41:22;16.60;1.00
20839;DHT22;10580;51.092;6.828;2023-07-22T05:43:48;16.70;99.90
20839;DHT22;10580;51.092;6.828;2023-07-22T05:46:14;16.70;99.90
20839;DHT22;10580;51.092;6.828;2023-07-22T05:48:39;16.70;99.90
20839;DHT22;10580;51.092;6.828;2023-07-22T05:51:05;16.90;99.90
20839;DHT22;10580;51.092;6.828;2023-07-22T05:53:32;17.30;99.90
20839;DHT22;10580;51.092;6.828;2023-07-22T05:56:00;17.80;55.00
20839;DHT22;10580;51.092;6.828;2023-07-22T05:58:26;18.10;1.00
20839;DHT22;10580;51.092;6.828;2023-07-22T06:00:53;17.90;1.00
20839;DHT22;10580;51.092;6.828;2023-07-22T06:03:19;18.00;1.00
20839;DHT22;10580;51.092;6.828;2023-07-22T06:05:46;18.40;1.00
20839;DHT22;10580;51.092;6.828;2023-07-22T06:08:12;20.00;1.00
20839;DHT22;10580;51.092;6.828;2023-07-22T06:10:40;20.50;1.00
20839;DHT22;10580;51.092;6.828;2023-07-22T06:13:05;21.20;1.00
20839;DHT22;10580;51.092;6.828;2023-07-22T06:15:34;21.60;1.00
20839;DHT22;10580;51.092;6.828;2023-07-22T06:18:00;21.40;1.00
20839;DHT22;10580;51.092;6.828;2023-07-22T06:20:26;20.90;1.00
20839;DHT22;10580;51.092;6.828;2023-07-22T06:22:52;21.40;1.00
20839;DHT22;10580;51.092;6.828;2023-07-22T06:25:17;21.60;1.00
20839;DHT22;10580;51.092;6.828;2023-07-22T06:27:43;22.40;1.00
20839;DHT22;10580;51.092;6.828;2023-07-22T06:30:11;22.50;1.00
20839;DHT22;10580;51.092;6.828;2023-07-22T06:32:38;22.30;1.00
20839;DHT22;10580;51.092;6.828;2023-07-22T06:35:04;21.30;1.00
20839;DHT22;10580;51.092;6.828;2023-07-22T06:37:30;21.20;1.00
20839;DHT22;10580;51.092;6.828;2023-07-22T06:39:56;21.10;1.00
20839;DHT22;10580;51.092;6.828;2023-07-22T06:42:21;20.70;1.00
20839;DHT22;10580;51.092;6.828;2023-07-22T06:44:47;21.20;1.00
20839;DHT22;10580;51.092;6.828;2023-07-22T06:47:13;21.50;1.00
20839;DHT22;10580;51.092;6.828;2023-07-22T06:49:39;21.40;1.00
20839;DHT22;10580;51.092;6.828;2023-07-22T06:52:06;21.50;1.00
20839;DHT22;10580;51.092;6.828;2023-07-22T06:54:32;20.70;1.00
20839;DHT22;10580;51.092;6.828;2023-07-22T06:56:57;20.40;1.00
20839;DHT22;10580;51.092;6.828;2023-07-22T06:59:23;19.90;1.00
20839;DHT22;10580;51.092;6.828;2023-07-22T07:01:48;19.40;1.00
20839;DHT22;10580;51.092;6.828;2023-07-22T07:04:14;19.20;1.00
20839;DHT22;10580;51.092;6.828;2023-07-22T07:06:39;18.90;1.00
20839;DHT22;10580;51.092;6.828;2023-07-22T07:09:05;18.70;1.00
20839;DHT22;10580;51.092;6.828;2023-07-22T07:11:31;18.70;1.00
20839;DHT22;10580;51.092;6.828;2023-07-22T07:13:57;18.50;1.00
20839;DHT22;10580;51.092;6.828;2023-07-22T07:16:28;18.50;1.00
20839;DHT22;10580;51.092;6.828;2023-07-22T07:18:54;18.50;1.00
20839;DHT22;10580;51.092;6.828;2023-07-22T07:21:21;18.60;1.00
20839;DHT22;10580;51.092;6.828;2023-07-22T07:23:47;18.70;1.00
20839;DHT22;10580;51.092;6.828;2023-07-22T07:26:13;18.70;1.00
20839;DHT22;10580;51.092;6.828;2023-07-22T07:28:41;18.60;1.00
20839;DHT22;10580;51.092;6.828;2023-07-22T07:31:06;18.80;1.00
20839;DHT22;10580;51.092;6.828;2023-07-22T07:33:33;19.10;1.00
20839;DHT22;10580;51.092;6.828;2023-07-22T07:35:59;19.40;1.00
20839;DHT22;10580;51.092;6.828;2023-07-22T07:38:25;20.00;1.00
20839;DHT22;10580;51.092;6.828;2023-07-22T07:40:58;19.90;1.00
20839;DHT22;10580;51.092;6.828;2023-07-22T07:43:25;20.10;1.00
20839;DHT22;10580;51.092;6.828;2023-07-22T07:45:51;20.00;1.00
20839;DHT22;10580;51.092;6.828;2023-07-22T07:48:39;19.80;1.00
20839;DHT22;10580;51.092;6.828;2023-07-22T07:51:04;19.90;1.00
20839;DHT22;10580;51.092;6.828;2023-07-22T07:53:30;20.00;1.00
20839;DHT22;10580;51.092;6.828;2023-07-22T07:55:56;19.80;1.00
20839;DHT22;10580;51.092;6.828;2023-07-22T07:58:21;20.00;1.00
20839;DHT22;10580;51.092;6.828;2023-07-22T08:00:47;19.70;1.00
20839;DHT22;10580;51.092;6.828;2023-07-22T08:03:12;19.40;1.00
20839;DHT22;10580;51.092;6.828;2023-07-22T08:05:38;19.40;1.00
20839;DHT22;10580;51.092;6.828;2023-07-22T08:08:04;19.60;1.00
20839;DHT22;10580;51.092;6.828;2023-07-22T08:10:33;19.70;1.00
20839;DHT22;10580;51.092;6.828;2023-07-22T08:12:58;19.70;1.00
20839;DHT22;10580;51.092;6.828;2023-07-22T08:15:24;19.90;1.00
20839;DHT22;10580;51.092;6.828;2023-07-22T08:17:50;20.20;1.00
20839;DHT22;10580;51.092;6.828;2023-07-22T08:20:16;20.40;1.00
20839;DHT22;10580;51.092;6.828;2023-07-22T08:22:41;20.60;1.00
20839;DHT22;10580;51.092;6.828;2023-07-22T08:25:07;20.70;1.00
20839;DHT22;10580;51.092;6.828;2023-07-22T08:27:33;21.40;1.00
20839;DHT22;10580;51.092;6.828;2023-07-22T08:29:58;22.00;1.00
20839;DHT22;10580;51.092;6.828;2023-07-22T08:32:24;22.60;1.00
20839;DHT22;10580;51.092;6.828;2023-07-22T08:34:49;23.00;1.00
20839;DHT22;10580;51.092;6.828;2023-07-22T08:37:15;23.60;1.00
20839;DHT22;10580;51.092;6.828;2023-07-22T08:39:40;23.90;1.00
20839;DHT22;10580;51.092;6.828;2023-07-22T08:42:07;23.70;1.00
20839;DHT22;10580;51.092;6.828;2023-07-22T08:44:33;23.50;1.00
20839;DHT22;10580;51.092;6.828;2023-07-22T08:47:03;23.60;1.00
20839;DHT22;10580;51.092;6.828;2023-07-22T08:49:30;23.00;1.00
20839;DHT22;10580;51.092;6.828;2023-07-22T08:51:56;22.90;1.00
20839;DHT22;10580;51.092;6.828;2023-07-22T08:54:23;23.10;1.00
20839;DHT22;10580;51.092;6.828;2023-07-22T08:56:49;22.80;1.00
20839;DHT22;10580;51.092;6.828;2023-07-22T08:59:17;23.20;1.00
20839;DHT22;10580;51.092;6.828;2023-07-22T09:01:43;23.50;1.00
20839;DHT22;10580;51.092;6.828;2023-07-22T09:04:09;23.40;1.00
20839;DHT22;10580;51.092;6.828;2023-07-22T09:06:35;23.70;1.00
20839;DHT22;10580;51.092;6.828;2023-07-22T09:09:02;23.30;1.00
20839;DHT22;10580;51.092;6.828;2023-07-22T09:11:32;23.70;1.00
20839;DHT22;10580;51.092;6.828;2023-07-22T09:17:17;23.60;1.00
20839;DHT22;10580;51.092;6.828;2023-07-22T09:19:43;22.80;1.00
20839;DHT22;10580;51.092;6.828;2023-07-22T09:22:08;23.10;1.00
20839;DHT22;10580;51.092;6.828;2023-07-22T09:24:34;23.20;1.00
20839;DHT22;10580;51.092;6.828;2023-07-22T09:26:59;23.00;1.00
20839;DHT22;10580;51.092;6.828;2023-07-22T09:29:38;22.90;1.00
20839;DHT22;10580;51.092;6.828;2023-07-22T09:32:10;22.60;99.90
20839;DHT22;10580;51.092;6.828;2023-07-22T09:34:35;22.30;99.90
20839;DHT22;10580;51.092;6.828;2023-07-22T09:37:01;22.40;99.90
20839;DHT22;10580;51.092;6.828;2023-07-22T09:39:30;22.60;99.90
20839;DHT22;10580;51.092;6.828;2023-07-22T09:42:06;22.70;99.90
20839;DHT22;10580;51.092;6.828;2023-07-22T09:44:34;22.90;99.90
20839;DHT22;10580;51.092;6.828;2023-07-22T09:47:06;22.70;99.90
20839;DHT22;10580;51.092;6.828;2023-07-22T09:49:32;23.10;99.90
20839;DHT22;10580;51.092;6.828;2023-07-22T09:52:00;23.10;99.90
20839;DHT22;10580;51.092;6.828;2023-07-22T09:54:46;23.30;99.90
20839;DHT22;10580;51.092;6.828;2023-07-22T09:57:13;23.60;99.90
20839;DHT22;10580;51.092;6.828;2023-07-22T09:59:39;23.80;1.00
20839;DHT22;10580;51.092;6.828;2023-07-22T10:02:05;24.20;99.90
20839;DHT22;10580;51.092;6.828;2023-07-22T10:04:33;24.50;99.90
20839;DHT22;10580;51.092;6.828;2023-07-22T10:06:59;24.50;1.00
20839;DHT22;10580;51.092;6.828;2023-07-22T10:09:27;24.20;99.90
20839;DHT22;10580;51.092;6.828;2023-07-22T10:11:53;24.10;99.90
20839;DHT22;10580;51.092;6.828;2023-07-22T10:14:19;24.20;99.90
20839;DHT22;10580;51.092;6.828;2023-07-22T10:16:45;24.40;99.90
20839;DHT22;10580;51.092;6.828;2023-07-22T10:19:11;24.40;99.90
20839;DHT22;10580;51.092;6.828;2023-07-22T10:21:38;24.70;99.90
20839;DHT22;10580;51.092;6.828;2023-07-22T10:24:04;24.60;99.90
20839;DHT22;10580;51.092;6.828;2023-07-22T10:26:31;24.60;99.90
20839;DHT22;10580;51.092;6.828;2023-07-22T10:28:58;24.80;99.90
20839;DHT22;10580;51.092;6.828;2023-07-22T10:31:24;24.80;99.90
20839;DHT22;10580;51.092;6.828;2023-07-22T10:33:50;24.40;99.90
20839;DHT22;10580;51.092;6.828;2023-07-22T10:36:16;24.30;99.90
20839;DHT22;10580;51.092;6.828;2023-07-22T10:38:42;24.40;99.90
20839;DHT22;10580;51.092;6.828;2023-07-22T10:41:13;24.60;99.90
20839;DHT22;10580;51.092;6.828;2023-07-22T10:43:39;24.80;99.90
20839;DHT22;10580;51.092;6.828;2023-07-22T10:46:08;25.10;99.90
20839;DHT22;10580;51.092;6.828;2023-07-22T10:48:36;24.90;99.90
20839;DHT22;10580;51.092;6.828;2023-07-22T10:51:13;25.00;99.90
20839;DHT22;10580;51.092;6.828;2023-07-22T10:53:47;24.50;99.90
20839;DHT22;10580;51.092;6.828;2023-07-22T11:11:56;25.30;99.90
20839;DHT22;10580;51.092;6.828;2023-07-22T11:14:29;25.70;99.90
20839;DHT22;10580;51.092;6.828;2023-07-22T11:17:02;25.80;99.90
20839;DHT22;10580;51.092;6.828;2023-07-22T11:19:32;26.30;99.90
20839;DHT22;10580;51.092;6.828;2023-07-22T11:21:59;26.00;99.90
20839;DHT22;10580;51.092;6.828;2023-07-22T11:24:25;26.50;99.90
20839;DHT22;10580;51.092;6.828;2023-07-22T11:26:55;25.90;99.90
20839;DHT22;10580;51.092;6.828;2023-07-22T11:29:24;25.90;99.90
20839;DHT22;10580;51.092;6.828;2023-07-22T11:31:51;26.60;99.90
20839;DHT22;10580;51.092;6.828;2023-07-22T11:34:26;26.80;99.90
20839;DHT22;10580;51.092;6.828;2023-07-22T11:36:55;26.80;99.90
20839;DHT22;10580;51.092;6.828;2023-07-22T11:39:28;27.30;99.90
20839;DHT22;10580;51.092;6.828;2023-07-22T11:42:00;27.20;99.90
20839;DHT22;10580;51.092;6.828;2023-07-22T11:44:30;27.30;99.90
20839;DHT22;10580;51.092;6.828;2023-07-22T11:47:06;27.10;99.90
20839;DHT22;10580;51.092;6.828;2023-07-22T11:49:46;27.00;99.90
20839;DHT22;10580;51.092;6.828;2023-07-22T11:52:16;27.00;99.90
20839;DHT22;10580;51.092;6.828;2023-07-22T11:54:46;26.80;99.90
20839;DHT22;10580;51.092;6.828;2023-07-22T11:57:23;26.40;99.90
20839;DHT22;10580;51.092;6.828;2023-07-22T11:59:56;26.40;99.90
20839;DHT22;10580;51.092;6.828;2023-07-22T12:02:28;26.40;99.90
20839;DHT22;10580;51.092;6.828;2023-07-22T12:05:04;26.50;99.90
20839;DHT22;10580;51.092;6.828;2023-07-22T12:07:37;26.80;99.90
20839;DHT22;10580;51.092;6.828;2023-07-22T12:10:15;27.30;99.90
20839;DHT22;10580;51.092;6.828;2023-07-22T12:12:46;27.40;99.90
20839;DHT22;10580;51.092;6.828;2023-07-22T12:15:16;27.20;99.90
20839;DHT22;10580;51.092;6.828;2023-07-22T12:17:48;26.80;99.90
20839;DHT22;10580;51.092;6.828;2023-07-22T12:20:15;26.70;99.90
20839;DHT22;10580;51.092;6.828;2023-07-22T12:22:41;26.80;99.90
20839;DHT22;10580;51.092;6.828;2023-07-22T12:25:11;26.70;99.90
20839;DHT22;10580;51.092;6.828;2023-07-22T12:27:37;27.00;99.90
20839;DHT22;10580;51.092;6.828;2023-07-22T12:30:04;27.20;99.90
20839;DHT22;10580;51.092;6.828;2023-07-22T12:32:31;27.30;99.90
20839;DHT22;10580;51.092;6.828;2023-07-22T12:34:56;27.30;99.90
20839;DHT22;10580;51.092;6.828;2023-07-22T12:37:22;27.10;99.90
20839;DHT22;10580;51.092;6.828;2023-07-22T12:39:47;27.00;99.90
20839;DHT22;10580;51.092;6.828;2023-07-22T12:42:13;27.60;99.90
20839;DHT22;10580;51.092;6.828;2023-07-22T12:44:38;27.50;99.90
20839;DHT22;10580;51.092;6.828;2023-07-22T12:47:04;27.00;99.90
20839;DHT22;10580;51.092;6.828;2023-07-22T12:49:30;26.80;99.90
20839;DHT22;10580;51.092;6.828;2023-07-22T12:51:55;27.10;99.90
20839;DHT22;10580;51.092;6.828;2023-07-22T12:54:21;27.40;99.90
20839;DHT22;10580;51.092;6.828;2023-07-22T12:56:47;27.20;99.90
20839;DHT22;10580;51.092;6.828;2023-07-22T12:59:13;27.50;99.90
20839;DHT22;10580;51.092;6.828;2023-07-22T13:01:38;27.10;99.90
20839;DHT22;10580;51.092;6.828;2023-07-22T13:04:06;27.30;99.90
20839;DHT22;10580;51.092;6.828;2023-07-22T13:06:32;27.60;99.90
20839;DHT22;10580;51.092;6.828;2023-07-22T13:08:57;27.60;99.90
20839;DHT22;10580;51.092;6.828;2023-07-22T13:11:23;27.30;99.90
20839;DHT22;10580;51.092;6.828;2023-07-22T13:13:48;27.10;99.90
20839;DHT22;10580;51.092;6.828;2023-07-22T13:16:14;27.30;99.90
20839;DHT22;10580;51.092;6.828;2023-07-22T13:18:39;27.10;99.90
20839;DHT22;10580;51.092;6.828;2023-07-22T13:21:05;26.40;99.90
20839;DHT22;10580;51.092;6.828;2023-07-22T13:23:31;26.60;99.90
20839;DHT22;10580;51.092;6.828;2023-07-22T13:25:56;26.70;99.90
20839;DHT22;10580;51.092;6.828;2023-07-22T13:28:22;26.10;99.90
20839;DHT22;10580;51.092;6.828;2023-07-22T13:30:47;26.30;99.90
20839;DHT22;10580;51.092;6.828;2023-07-22T13:33:13;26.50;99.90
20839;DHT22;10580;51.092;6.828;2023-07-22T13:35:38;26.60;99.90
20839;DHT22;10580;51.092;6.828;2023-07-22T13:38:04;26.80;99.90
20839;DHT22;10580;51.092;6.828;2023-07-22T13:40:29;26.50;99.90
20839;DHT22;10580;51.092;6.828;2023-07-22T13:42:56;26.50;99.90
20839;DHT22;10580;51.092;6.828;2023-07-22T13:45:21;26.50;99.90
20839;DHT22;10580;51.092;6.828;2023-07-22T13:47:47;26.60;99.90
20839;DHT22;10580;51.092;6.828;2023-07-22T13:50:13;26.90;99.90
20839;DHT22;10580;51.092;6.828;2023-07-22T13:52:38;27.20;99.90
20839;DHT22;10580;51.092;6.828;2023-07-22T13:55:05;27.10;99.90
20839;DHT22;10580;51.092;6.828;2023-07-22T13:57:31;26.90;99.90
20839;DHT22;10580;51.092;6.828;2023-07-22T13:59:57;26.70;99.90
20839;DHT22;10580;51.092;6.828;2023-07-22T14:02:22;26.40;99.90
20839;DHT22;10580;51.092;6.828;2023-07-22T14:04:48;26.30;99.90
20839;DHT22;10580;51.092;6.828;2023-07-22T14:07:13;26.40;99.90
20839;DHT22;10580;51.092;6.828;2023-07-22T14:09:39;26.40;99.90
20839;DHT22;10580;51.092;6.828;2023-07-22T14:12:05;26.50;99.90
20839;DHT22;10580;51.092;6.828;2023-07-22T14:14:31;26.40;99.90
20839;DHT22;10580;51.092;6.828;2023-07-22T14:16:59;26.10;99.90
20839;DHT22;10580;51.092;6.828;2023-07-22T14:19:27;26.00;99.90
20839;DHT22;10580;51.092;6.828;2023-07-22T14:21:53;26.10;99.90
20839;DHT22;10580;51.092;6.828;2023-07-22T14:24:19;26.50;99.90
20839;DHT22;10580;51.092;6.828;2023-07-22T14:26:47;26.60;99.90
20839;DHT22;10580;51.092;6.828;2023-07-22T14:29:13;26.30;99.90
20839;DHT22;10580;51.092;6.828;2023-07-22T14:31:38;26.10;99.90
20839;DHT22;10580;51.092;6.828;2023-07-22T14:34:07;26.00;99.90
20839;DHT22;10580;51.092;6.828;2023-07-22T14:36:33;26.30;99.90
20839;DHT22;10580;51.092;6.828;2023-07-22T14:39:01;26.60;99.90
20839;DHT22;10580;51.092;6.828;2023-07-22T14:41:29;26.80;99.90
20839;DHT22;10580;51.092;6.828;2023-07-22T14:43:55;26.60;99.90
20839;DHT22;10580;51.092;6.828;2023-07-22T14:46:21;26.20;99.90
20839;DHT22;10580;51.092;6.828;2023-07-22T14:48:52;26.40;99.90
20839;DHT22;10580;51.092;6.828;2023-07-22T14:51:20;26.30;99.90
20839;DHT22;10580;51.092;6.828;2023-07-22T14:53:46;26.50;99.90
20839;DHT22;10580;51.092;6.828;2023-07-22T14:56:11;26.60;99.90
20839;DHT22;10580;51.092;6.828;2023-07-22T14:58:37;26.50;99.90
20839;DHT22;10580;51.092;6.828;2023-07-22T15:01:02;26.40;99.90
20839;DHT22;10580;51.092;6.828;2023-07-22T15:03:29;26.40;99.90
20839;DHT22;10580;51.092;6.828;2023-07-22T15:05:55;26.40;99.90
20839;DHT22;10580;51.092;6.828;2023-07-22T15:08:23;26.00;99.90
20839;DHT22;10580;51.092;6.828;2023-07-22T15:10:51;25.70;99.90
20839;DHT22;10580;51.092;6.828;2023-07-22T15:13:19;25.90;99.90
20839;DHT22;10580;51.092;6.828;2023-07-22T15:15:47;26.00;99.90
20839;DHT22;10580;51.092;6.828;2023-07-22T15:18:14;25.90;99.90
20839;DHT22;10580;51.092;6.828;2023-07-22T15:20:39;26.10;99.90
20839;DHT22;10580;51.092;6.828;2023-07-22T15:23:05;26.10;99.90
20839;DHT22;10580;51.092;6.828;2023-07-22T15:25:33;26.00;99.90
20839;DHT22;10580;51.092;6.828;2023-07-22T15:28:01;25.80;99.90
20839;DHT22;10580;51.092;6.828;2023-07-22T15:30:27;25.80;99.90
20839;DHT22;10580;51.092;6.828;2023-07-22T15:32:52;25.50;99.90
20839;DHT22;10580;51.092;6.828;2023-07-22T15:35:18;25.40;99.90
20839;DHT22;10580;51.092;6.828;2023-07-22T15:37:46;25.20;99.90
20839;DHT22;10580;51.092;6.828;2023-07-22T15:40:12;25.20;99.90
20839;DHT22;10580;51.092;6.828;2023-07-22T15:48:30;24.90;99.90
20839;DHT22;10580;51.092;6.828;2023-07-22T15:53:40;24.90;99.90
20839;DHT22;10580;51.092;6.828;2023-07-22T15:56:05;24.80;99.90
20839;DHT22;10580;51.092;6.828;2023-07-22T15:58:31;24.70;99.90
20839;DHT22;10580;51.092;6.828;2023-07-22T16:00:57;24.70;99.90
20839;DHT22;10580;51.092;6.828;2023-07-22T16:03:22;24.60;99.90
20839;DHT22;10580;51.092;6.828;2023-07-22T16:05:48;24.40;99.90